Time;durP1;ratioP1;P1;durP2;ratioP2;P2;SDS_P1;SDS_P2;PMS_P1;PMS_P2;Temp;Humidity;BMP_temperature;BMP_pressure;BME280_temperature;BME280_humidity;BME280_pressure;Samples;Min_cycle;Max_cycle;Signal;HPM_P1;HPM_P2
2021/08/30 00:00:06;;;;;;;4.57;3.33;;;;;;;;;;5021942;28;20053;-78
2021/08/30 00:02:32;;;;;;;4.13;2.95;;;;;;;;;;5026718;28;20080;-78
2021/08/30 00:04:59;;;;;;;3.80;2.85;;;;;;;;;;5014046;28;20100;-81
2021/08/30 00:07:25;;;;;;;4.28;2.80;;;;;;;;;;5022948;28;21611;-78
2021/08/30 00:09:52;;;;;;;5.00;3.42;;;;;;;;;;5024025;28;20076;-78
2021/08/30 00:12:18;;;;;;;4.22;3.10;;;;;;;;;;5020903;28;20073;-80
2021/08/30 00:14:45;;;;;;;4.75;3.58;;;;;;;;;;5032285;28;20061;-78
2021/08/30 00:17:11;;;;;;;3.67;2.72;;;;;;;;;;5038000;28;20576;-79
2021/08/30 00:19:37;;;;;;;4.05;2.83;;;;;;;;;;5022919;28;20072;-80
2021/08/30 00:22:04;;;;;;;3.83;2.83;;;;;;;;;;5019355;28;20056;-79
2021/08/30 00:24:31;;;;;;;4.75;3.08;;;;;;;;;;5013725;28;20050;-77
2021/08/30 00:26:58;;;;;;;4.40;3.10;;;;;;;;;;5029924;28;20088;-78
2021/08/30 00:29:25;;;;;;;4.43;2.97;;;;;;;;;;5018378;28;22270;-79
2021/08/30 00:31:55;;;;;;;3.42;2.70;;;;;;;;;;5018559;28;20069;-78
2021/08/30 00:34:21;;;;;;;3.47;2.60;;;;;;;;;;5036173;28;20076;-79
2021/08/30 00:36:48;;;;;;;4.03;3.03;;;;;;;;;;5029772;28;20509;-79
2021/08/30 00:39:24;;;;;;;4.32;3.15;;;;;;;;;;5017769;28;20054;-78
2021/08/30 00:41:52;;;;;;;3.72;2.40;;;;;;;;;;5027926;28;20525;-77
2021/08/30 00:44:19;;;;;;;3.78;2.80;;;;;;;;;;5020727;28;20091;-78
2021/08/30 00:46:45;;;;;;;3.90;2.95;;;;;;;;;;5015147;28;20037;-78
2021/08/30 00:49:11;;;;;;;4.20;3.00;;;;;;;;;;5011431;28;20130;-78
2021/08/30 00:51:38;;;;;;;5.57;3.60;;;;;;;;;;5022599;28;20057;-78
2021/08/30 00:54:04;;;;;;;4.72;3.30;;;;;;;;;;5029423;28;20546;-79
2021/08/30 00:56:31;;;;;;;5.93;3.33;;;;;;;;;;5029315;28;20064;-78
2021/08/30 00:58:57;;;;;;;3.75;2.92;;;;;;;;;;5037954;28;20076;-78
2021/08/30 01:01:24;;;;;;;5.00;3.05;;;;;;;;;;5025853;28;20485;-79
2021/08/30 01:03:51;;;;;;;3.97;3.00;;;;;;;;;;5033325;28;20484;-78
2021/08/30 01:06:18;;;;;;;5.32;3.35;;;;;;;;;;5023953;28;20516;-78
2021/08/30 01:08:49;;;;;;;4.43;2.85;;;;;;;;;;5030469;28;20060;-79
2021/08/30 01:11:18;;;;;;;4.78;3.13;;;;;;;;;;5031794;28;20138;-78
2021/08/30 01:13:54;;;;;;;3.92;3.05;;;;;;;;;;5038054;28;20060;-78
2021/08/30 01:16:21;;;;;;;3.97;3.00;;;;;;;;;;5014685;28;20096;-78
2021/08/30 01:18:50;;;;;;;3.72;2.58;;;;;;;;;;5025594;28;20073;-78
2021/08/30 01:21:24;;;;;;;3.85;3.03;;;;;;;;;;5028361;28;20479;-78
2021/08/30 01:23:58;;;;;;;4.47;3.22;;;;;;;;;;5028560;28;20574;-80
2021/08/30 01:26:30;;;;;;;3.63;2.72;;;;;;;;;;5013791;28;20484;-78
2021/08/30 01:29:06;;;;;;;3.75;2.90;;;;;;;;;;4993915;28;20123;-78
2021/08/30 01:31:44;;;;;;;3.90;2.88;;;;;;;;;;5012326;28;20041;-77
2021/08/30 01:34:11;;;;;;;3.70;2.78;;;;;;;;;;5025447;28;20112;-78
2021/08/30 01:36:38;;;;;;;4.35;3.10;;;;;;;;;;5026675;28;20429;-79
2021/08/30 01:39:05;;;;;;;4.95;3.05;;;;;;;;;;5023326;28;20070;-77
2021/08/30 01:41:32;;;;;;;3.60;2.70;;;;;;;;;;5025989;28;20065;-79
2021/08/30 01:43:59;;;;;;;5.25;3.85;;;;;;;;;;5018144;28;20072;-77
2021/08/30 01:46:26;;;;;;;4.78;2.97;;;;;;;;;;5024007;28;21271;-78
2021/08/30 01:48:54;;;;;;;3.97;2.70;;;;;;;;;;5026015;28;20096;-78
2021/08/30 01:51:23;;;;;;;3.47;2.55;;;;;;;;;;5025530;28;20493;-78
2021/08/30 01:53:51;;;;;;;3.42;2.83;;;;;;;;;;5026048;28;20065;-78
2021/08/30 01:56:19;;;;;;;4.90;3.10;;;;;;;;;;5023791;28;20064;-78
2021/08/30 02:01:34;;;;;;;4.85;3.10;;;;;;;;;;5025004;28;20127;-79
2021/08/30 02:04:00;;;;;;;4.47;3.08;;;;;;;;;;5022982;28;20057;-79
2021/08/30 02:06:27;;;;;;;4.40;2.83;;;;;;;;;;5027459;28;20115;-78
2021/08/30 02:08:55;;;;;;;4.25;3.38;;;;;;;;;;5024388;28;20065;-79
2021/08/30 02:11:27;;;;;;;4.13;2.83;;;;;;;;;;5015631;28;20030;-78
2021/08/30 02:13:54;;;;;;;5.80;3.00;;;;;;;;;;5024342;28;20056;-78
2021/08/30 02:16:20;;;;;;;5.00;3.28;;;;;;;;;;5021653;28;20490;-78
2021/08/30 02:18:50;;;;;;;4.20;3.17;;;;;;;;;;5024048;28;20076;-78
2021/08/30 02:21:16;;;;;;;3.83;2.70;;;;;;;;;;5008092;28;20150;-78
2021/08/30 02:24:01;;;;;;;3.90;3.00;;;;;;;;;;5016824;28;20112;-78
2021/08/30 02:26:34;;;;;;;4.15;2.75;;;;;;;;;;5018776;28;20053;-78
2021/08/30 02:29:02;;;;;;;5.10;3.30;;;;;;;;;;5015747;28;20073;-79
2021/08/30 02:31:30;;;;;;;4.57;3.38;;;;;;;;;;5030495;28;20083;-79
2021/08/30 02:33:58;;;;;;;4.43;2.97;;;;;;;;;;5020235;28;20050;-81
2021/08/30 02:36:25;;;;;;;3.80;2.80;;;;;;;;;;5018679;28;21416;-79
2021/08/30 02:38:52;;;;;;;4.55;3.08;;;;;;;;;;5012895;28;20471;-79
2021/08/30 02:41:19;;;;;;;4.80;3.20;;;;;;;;;;5021113;28;20489;-78
2021/08/30 02:43:46;;;;;;;5.20;3.17;;;;;;;;;;5029400;28;20061;-79
2021/08/30 02:46:13;;;;;;;4.38;2.97;;;;;;;;;;5037830;28;20114;-79
2021/08/30 02:48:40;;;;;;;3.67;2.90;;;;;;;;;;5024401;28;20053;-79
2021/08/30 02:51:07;;;;;;;4.03;3.10;;;;;;;;;;5024934;28;20114;-78
2021/08/30 02:53:34;;;;;;;4.75;3.20;;;;;;;;;;5017506;28;20033;-78
2021/08/30 02:56:01;;;;;;;3.40;2.40;;;;;;;;;;5025638;28;20084;-80
2021/08/30 02:58:28;;;;;;;3.95;2.80;;;;;;;;;;5025488;28;20061;-79
2021/08/30 03:00:54;;;;;;;4.07;2.85;;;;;;;;;;5027634;28;20064;-78
2021/08/30 03:03:21;;;;;;;3.33;2.40;;;;;;;;;;5015370;28;20497;-79
2021/08/30 03:05:48;;;;;;;4.72;3.00;;;;;;;;;;5020138;28;20069;-78
2021/08/30 03:08:16;;;;;;;4.50;3.05;;;;;;;;;;5020879;28;20084;-78
2021/08/30 03:10:44;;;;;;;3.85;3.00;;;;;;;;;;5027863;28;20061;-78
2021/08/30 03:13:11;;;;;;;5.07;2.95;;;;;;;;;;5025138;28;20064;-78
2021/08/30 03:15:37;;;;;;;3.42;2.38;;;;;;;;;;5023988;28;20046;-76
2021/08/30 03:18:08;;;;;;;4.45;2.78;;;;;;;;;;5024835;28;20053;-80
2021/08/30 03:20:34;;;;;;;4.20;2.75;;;;;;;;;;5016218;28;20128;-81
2021/08/30 03:23:02;;;;;;;5.40;3.28;;;;;;;;;;5021948;28;20103;-81
2021/08/30 03:25:32;;;;;;;4.25;2.80;;;;;;;;;;5022888;28;20630;-82
2021/08/30 03:27:59;;;;;;;3.40;2.75;;;;;;;;;;5031421;28;20069;-81
2021/08/30 03:30:26;;;;;;;3.63;2.53;;;;;;;;;;5024558;28;20554;-81
2021/08/30 03:32:53;;;;;;;6.28;2.65;;;;;;;;;;5019325;28;20163;-80
2021/08/30 03:35:22;;;;;;;4.20;3.08;;;;;;;;;;5014015;28;20093;-82
2021/08/30 03:37:48;;;;;;;4.20;2.65;;;;;;;;;;5021922;28;20109;-82
2021/08/30 03:40:15;;;;;;;4.07;3.05;;;;;;;;;;5020985;28;20658;-81
2021/08/30 03:42:42;;;;;;;4.18;3.10;;;;;;;;;;5023114;28;20056;-82
2021/08/30 03:45:10;;;;;;;3.65;3.00;;;;;;;;;;5015545;28;20323;-82
2021/08/30 03:47:37;;;;;;;5.25;2.90;;;;;;;;;;5015787;28;20061;-82
2021/08/30 03:50:04;;;;;;;3.55;2.72;;;;;;;;;;5014331;28;20041;-83
2021/08/30 03:52:32;;;;;;;4.03;3.05;;;;;;;;;;5023427;28;20118;-82
2021/08/30 03:54:58;;;;;;;4.00;2.95;;;;;;;;;;5018910;28;20079;-84
2021/08/30 03:57:26;;;;;;;3.80;2.90;;;;;;;;;;5011383;28;21208;-81
2021/08/30 03:59:56;;;;;;;4.70;2.85;;;;;;;;;;5000849;28;20124;-81
2021/08/30 04:02:24;;;;;;;6.95;3.67;;;;;;;;;;5028319;28;20072;-79
2021/08/30 04:04:51;;;;;;;8.55;3.83;;;;;;;;;;5021623;28;20057;-82
2021/08/30 04:07:19;;;;;;;9.48;4.18;;;;;;;;;;5012142;28;20052;-82
2021/08/30 04:09:45;;;;;;;8.15;4.40;;;;;;;;;;5025852;28;20080;-79
2021/08/30 04:12:12;;;;;;;10.10;3.95;;;;;;;;;;5016378;28;20129;-79
2021/08/30 04:14:39;;;;;;;6.95;3.88;;;;;;;;;;5023429;28;20053;-79
2021/08/30 04:17:05;;;;;;;6.50;3.70;;;;;;;;;;5016084;28;20062;-80
2021/08/30 04:19:31;;;;;;;7.25;3.78;;;;;;;;;;5019332;28;20057;-80
2021/08/30 04:21:58;;;;;;;7.07;3.92;;;;;;;;;;5017290;28;20061;-81
2021/08/30 04:24:24;;;;;;;6.22;4.43;;;;;;;;;;5014537;28;20076;-80
2021/08/30 04:26:51;;;;;;;8.82;4.60;;;;;;;;;;5019707;28;20058;-81
2021/08/30 04:29:17;;;;;;;7.80;3.95;;;;;;;;;;5014020;28;20068;-81
2021/08/30 04:31:43;;;;;;;7.55;4.60;;;;;;;;;;5017399;28;20061;-81
2021/08/30 04:34:10;;;;;;;6.57;3.55;;;;;;;;;;5016581;28;20064;-81
2021/08/30 04:36:36;;;;;;;5.90;3.78;;;;;;;;;;5017503;28;20066;-81
2021/08/30 04:39:04;;;;;;;4.50;3.63;;;;;;;;;;5012804;28;20042;-82
2021/08/30 04:41:30;;;;;;;5.93;3.42;;;;;;;;;;5015464;28;20080;-81
2021/08/30 04:43:57;;;;;;;7.65;3.53;;;;;;;;;;5023135;28;20057;-80
2021/08/30 04:46:23;;;;;;;6.30;3.65;;;;;;;;;;5016636;28;20060;-81
2021/08/30 04:48:49;;;;;;;4.88;3.60;;;;;;;;;;5017798;28;20496;-79
2021/08/30 04:51:16;;;;;;;5.53;3.88;;;;;;;;;;5012035;28;20079;-79
2021/08/30 04:53:42;;;;;;;6.97;3.97;;;;;;;;;;5012104;28;20539;-80
2021/08/30 04:56:09;;;;;;;5.75;4.25;;;;;;;;;;5020614;28;20189;-80
2021/08/30 04:58:36;;;;;;;8.05;3.85;;;;;;;;;;5013830;28;20080;-79
2021/08/30 05:01:02;;;;;;;5.18;3.70;;;;;;;;;;5015767;28;20068;-82
2021/08/30 05:03:28;;;;;;;11.38;3.97;;;;;;;;;;5020360;28;20064;-84
2021/08/30 05:05:55;;;;;;;3.83;2.75;;;;;;;;;;5003576;28;20060;-85
2021/08/30 05:08:21;;;;;;;5.00;3.03;;;;;;;;;;5016612;28;20042;-85
2021/08/30 05:10:48;;;;;;;4.88;3.28;;;;;;;;;;5016044;28;20128;-84
2021/08/30 05:13:14;;;;;;;5.40;3.42;;;;;;;;;;5012590;28;20049;-85
2021/08/30 05:15:41;;;;;;;5.85;2.95;;;;;;;;;;5027282;28;20056;-85
2021/08/30 05:18:07;;;;;;;7.45;3.95;;;;;;;;;;5019001;28;20500;-83
2021/08/30 05:20:34;;;;;;;6.07;2.85;;;;;;;;;;5020058;28;20052;-79
2021/08/30 05:23:00;;;;;;;5.50;3.78;;;;;;;;;;5032308;28;20517;-83
2021/08/30 05:25:26;;;;;;;4.05;3.03;;;;;;;;;;4996296;28;20463;-82
2021/08/30 05:27:53;;;;;;;4.88;3.40;;;;;;;;;;5007529;28;20080;-82
2021/08/30 05:30:19;;;;;;;4.05;3.40;;;;;;;;;;5018586;28;20077;-82
2021/08/30 05:32:46;;;;;;;12.10;4.15;;;;;;;;;;5020208;28;20060;-83
2021/08/30 05:35:13;;;;;;;4.53;2.92;;;;;;;;;;5018654;28;20064;-81
2021/08/30 05:37:40;;;;;;;4.78;3.15;;;;;;;;;;5013556;28;20068;-83
2021/08/30 05:40:06;;;;;;;4.75;2.88;;;;;;;;;;5025100;28;20062;-83
2021/08/30 05:42:33;;;;;;;4.43;3.25;;;;;;;;;;5020642;28;20057;-82
2021/08/30 05:44:59;;;;;;;5.18;2.88;;;;;;;;;;5023999;28;20444;-81
2021/08/30 05:47:25;;;;;;;4.70;3.20;;;;;;;;;;5025524;28;20328;-81
2021/08/30 05:49:53;;;;;;;6.25;3.30;;;;;;;;;;5031502;28;20084;-81
2021/08/30 05:52:19;;;;;;;3.97;2.60;;;;;;;;;;5015553;28;20057;-81
2021/08/30 05:54:45;;;;;;;8.68;3.40;;;;;;;;;;5025417;28;20446;-80
2021/08/30 05:57:12;;;;;;;5.85;3.30;;;;;;;;;;5016802;28;20062;-81
2021/08/30 05:59:38;;;;;;;4.57;3.22;;;;;;;;;;5028255;28;20056;-80
2021/08/30 06:02:05;;;;;;;4.45;2.58;;;;;;;;;;5023797;28;20484;-80
2021/08/30 06:04:31;;;;;;;5.18;3.58;;;;;;;;;;5018001;28;20057;-80
2021/08/30 06:06:58;;;;;;;5.70;3.40;;;;;;;;;;5011741;28;20544;-81
2021/08/30 06:09:24;;;;;;;5.78;3.20;;;;;;;;;;5023732;28;20065;-80
2021/08/30 06:11:51;;;;;;;6.43;3.40;;;;;;;;;;5022094;28;20061;-81
2021/08/30 06:14:18;;;;;;;4.82;2.88;;;;;;;;;;5024143;28;20068;-81
2021/08/30 06:16:44;;;;;;;5.30;2.75;;;;;;;;;;5018092;28;20053;-80
2021/08/30 06:19:10;;;;;;;3.30;2.42;;;;;;;;;;5017020;28;20068;-80
2021/08/30 06:21:37;;;;;;;4.00;3.20;;;;;;;;;;5014819;28;20061;-80
2021/08/30 06:24:03;;;;;;;4.45;3.05;;;;;;;;;;5023222;28;20044;-80
2021/08/30 06:26:30;;;;;;;5.82;3.05;;;;;;;;;;5022706;28;20151;-80
2021/08/30 06:28:57;;;;;;;6.50;3.03;;;;;;;;;;5014466;28;20089;-81
2021/08/30 06:31:23;;;;;;;5.68;3.00;;;;;;;;;;5019180;28;20516;-81
2021/08/30 06:33:49;;;;;;;5.18;3.60;;;;;;;;;;5017191;28;20056;-81
2021/08/30 06:36:16;;;;;;;6.90;3.33;;;;;;;;;;5022951;28;20069;-81
2021/08/30 06:38:42;;;;;;;5.72;3.05;;;;;;;;;;5019818;28;20065;-82
2021/08/30 06:41:08;;;;;;;4.70;3.03;;;;;;;;;;5016279;28;20099;-81
2021/08/30 06:43:35;;;;;;;5.78;3.90;;;;;;;;;;5020834;28;20068;-80
2021/08/30 06:46:01;;;;;;;4.40;2.97;;;;;;;;;;5021749;28;20068;-81
2021/08/30 06:48:28;;;;;;;4.70;3.00;;;;;;;;;;5018477;28;20065;-79
2021/08/30 06:50:54;;;;;;;4.35;3.33;;;;;;;;;;5023216;28;20069;-81
2021/08/30 06:53:20;;;;;;;3.75;2.33;;;;;;;;;;5013952;28;20041;-79
2021/08/30 06:55:47;;;;;;;4.80;3.53;;;;;;;;;;5027697;28;20052;-80
2021/08/30 06:58:13;;;;;;;3.97;2.92;;;;;;;;;;5019001;28;20505;-80
2021/08/30 07:00:40;;;;;;;4.13;3.08;;;;;;;;;;5023808;28;20056;-80
2021/08/30 07:03:07;;;;;;;3.83;2.17;;;;;;;;;;5012825;28;20068;-80
2021/08/30 07:05:33;;;;;;;5.28;2.90;;;;;;;;;;5036475;28;20064;-81
2021/08/30 07:08:00;;;;;;;4.97;3.30;;;;;;;;;;5024485;28;20073;-80
2021/08/30 07:10:26;;;;;;;5.53;3.10;;;;;;;;;;5033092;28;21230;-79
2021/08/30 07:12:52;;;;;;;4.43;3.03;;;;;;;;;;5020702;28;20061;-79
2021/08/30 07:15:19;;;;;;;4.32;3.55;;;;;;;;;;5021196;28;20453;-80
2021/08/30 07:17:46;;;;;;;5.00;3.10;;;;;;;;;;5016744;28;20053;-79
2021/08/30 07:20:12;;;;;;;5.13;3.13;;;;;;;;;;5027867;28;20060;-79
2021/08/30 07:22:39;;;;;;;6.22;2.78;;;;;;;;;;5024190;28;20053;-80
2021/08/30 07:25:05;;;;;;;4.47;2.92;;;;;;;;;;5018061;28;20115;-80
2021/08/30 07:27:32;;;;;;;4.88;3.38;;;;;;;;;;5015487;28;20057;-79
2021/08/30 07:29:58;;;;;;;4.78;3.30;;;;;;;;;;5024570;28;20138;-80
2021/08/30 07:32:25;;;;;;;4.35;2.92;;;;;;;;;;5013446;28;20057;-79
2021/08/30 07:34:52;;;;;;;4.15;3.30;;;;;;;;;;5034394;28;20462;-79
2021/08/30 07:37:18;;;;;;;4.50;2.92;;;;;;;;;;5022375;28;20084;-79
2021/08/30 07:39:44;;;;;;;5.22;3.38;;;;;;;;;;5022952;28;20064;-79
2021/08/30 07:42:11;;;;;;;3.55;2.67;;;;;;;;;;5026721;28;20453;-79
2021/08/30 07:44:37;;;;;;;4.38;3.30;;;;;;;;;;5027305;28;20130;-79
2021/08/30 07:47:04;;;;;;;3.88;2.80;;;;;;;;;;5020740;28;20045;-79
2021/08/30 07:49:30;;;;;;;4.85;2.58;;;;;;;;;;5019044;28;20069;-79
2021/08/30 07:51:57;;;;;;;5.65;3.47;;;;;;;;;;5030888;28;20155;-80
2021/08/30 07:54:23;;;;;;;5.28;3.20;;;;;;;;;;5029006;28;20045;-81
2021/08/30 07:56:50;;;;;;;4.80;3.50;;;;;;;;;;5027297;28;20063;-80
2021/08/30 07:59:16;;;;;;;5.13;3.50;;;;;;;;;;5013227;28;20447;-79
2021/08/30 08:01:43;;;;;;;5.45;3.78;;;;;;;;;;5034257;28;20060;-79
2021/08/30 08:04:09;;;;;;;5.40;3.90;;;;;;;;;;5022932;28;20084;-79
2021/08/30 08:06:35;;;;;;;4.93;3.42;;;;;;;;;;5026650;28;20029;-79
2021/08/30 08:09:02;;;;;;;5.93;3.95;;;;;;;;;;5014375;28;20543;-79
2021/08/30 08:11:28;;;;;;;6.30;4.03;;;;;;;;;;5013086;28;20127;-79
2021/08/30 08:13:55;;;;;;;6.72;3.80;;;;;;;;;;5024859;28;20490;-80
2021/08/30 08:16:21;;;;;;;7.72;3.92;;;;;;;;;;5028987;28;20061;-79
2021/08/30 08:18:47;;;;;;;5.47;4.13;;;;;;;;;;5020269;28;20057;-82
2021/08/30 08:21:14;;;;;;;4.72;3.63;;;;;;;;;;5010544;28;20080;-82
2021/08/30 08:23:40;;;;;;;6.47;3.90;;;;;;;;;;5024731;28;20098;-81
2021/08/30 08:26:07;;;;;;;5.85;4.40;;;;;;;;;;5023559;28;20602;-81
2021/08/30 08:28:33;;;;;;;5.80;4.43;;;;;;;;;;5013579;28;20049;-81
2021/08/30 08:31:00;;;;;;;6.30;4.45;;;;;;;;;;5034951;28;20076;-82
2021/08/30 08:33:26;;;;;;;6.05;4.20;;;;;;;;;;5034210;28;20049;-82
2021/08/30 08:35:53;;;;;;;8.48;4.80;;;;;;;;;;5026456;28;20729;-81
2021/08/30 08:38:20;;;;;;;6.43;4.72;;;;;;;;;;5013151;28;20069;-81
2021/08/30 08:40:46;;;;;;;5.47;4.40;;;;;;;;;;5013897;28;20054;-81
2021/08/30 08:43:13;;;;;;;6.50;4.43;;;;;;;;;;5011833;28;20123;-80
2021/08/30 08:45:41;;;;;;;6.50;4.10;;;;;;;;;;5018038;28;20537;-80
2021/08/30 08:48:08;;;;;;;6.75;4.32;;;;;;;;;;5022468;28;20143;-81
2021/08/30 08:50:35;;;;;;;6.50;4.18;;;;;;;;;;5016179;28;20073;-81
2021/08/30 08:53:04;;;;;;;6.95;4.97;;;;;;;;;;5020926;28;20044;-82
2021/08/30 08:55:35;;;;;;;7.43;4.50;;;;;;;;;;5014446;28;20053;-84
2021/08/30 08:58:07;;;;;;;6.83;4.67;;;;;;;;;;5025597;28;20037;-80
2021/08/30 09:00:34;;;;;;;7.60;4.63;;;;;;;;;;5015281;28;20824;-82
2021/08/30 09:03:00;;;;;;;6.00;4.15;;;;;;;;;;5019043;28;20338;-78
2021/08/30 09:05:28;;;;;;;8.07;4.68;;;;;;;;;;5016666;28;21318;-78
2021/08/30 09:07:54;;;;;;;6.03;4.30;;;;;;;;;;5027355;28;20052;-77
2021/08/30 09:10:25;;;;;;;7.88;5.03;;;;;;;;;;5027246;28;20069;-78
2021/08/30 09:13:02;;;;;;;11.33;6.17;;;;;;;;;;5027265;28;20451;-78
2021/08/30 09:15:29;;;;;;;9.43;6.15;;;;;;;;;;5037803;28;20415;-78
2021/08/30 09:17:56;;;;;;;9.40;5.93;;;;;;;;;;5026460;28;20034;-78
2021/08/30 09:20:23;;;;;;;10.05;6.10;;;;;;;;;;5018833;28;20054;-78
2021/08/30 09:22:50;;;;;;;11.63;6.45;;;;;;;;;;5015870;28;20486;-77
2021/08/30 09:25:16;;;;;;;9.60;5.53;;;;;;;;;;5015090;28;20049;-77
2021/08/30 09:27:45;;;;;;;7.68;5.57;;;;;;;;;;5018409;28;20107;-77
2021/08/30 09:30:13;;;;;;;9.43;5.53;;;;;;;;;;5038562;28;20515;-77
2021/08/30 09:32:40;;;;;;;8.05;5.93;;;;;;;;;;5013948;28;20132;-77
2021/08/30 09:35:08;;;;;;;8.20;5.45;;;;;;;;;;5023659;28;20134;-80
2021/08/30 09:37:35;;;;;;;8.02;5.82;;;;;;;;;;5017394;28;20066;-79
2021/08/30 09:40:06;;;;;;;8.07;5.53;;;;;;;;;;5025991;28;20433;-79
2021/08/30 09:42:32;;;;;;;7.75;5.72;;;;;;;;;;5011918;28;20943;-80
2021/08/30 09:45:22;;;;;;;9.30;5.80;;;;;;;;;;5015251;28;20065;-79
2021/08/30 09:47:50;;;;;;;8.45;5.57;;;;;;;;;;5014700;28;21325;-79
2021/08/30 09:50:17;;;;;;;8.50;5.82;;;;;;;;;;5012306;28;20076;-80
2021/08/30 09:52:43;;;;;;;6.72;5.25;;;;;;;;;;5015697;28;20512;-80
2021/08/30 09:55:10;;;;;;;8.02;5.63;;;;;;;;;;5012084;28;20069;-80
2021/08/30 09:57:37;;;;;;;8.82;5.50;;;;;;;;;;5020928;28;20103;-79
2021/08/30 10:00:05;;;;;;;7.72;4.68;;;;;;;;;;5015808;28;20061;-79
2021/08/30 10:02:32;;;;;;;7.18;4.95;;;;;;;;;;5022776;28;20501;-78
2021/08/30 10:05:00;;;;;;;7.65;4.95;;;;;;;;;;5014079;28;20069;-79
2021/08/30 10:07:29;;;;;;;6.35;4.80;;;;;;;;;;5026434;28;20088;-80
2021/08/30 10:09:56;;;;;;;8.52;5.38;;;;;;;;;;4993013;28;20065;-80
2021/08/30 10:12:22;;;;;;;7.55;5.35;;;;;;;;;;5026677;28;20065;-80
2021/08/30 10:14:49;;;;;;;5.88;4.63;;;;;;;;;;5016487;28;20610;-78
2021/08/30 10:17:17;;;;;;;9.93;5.30;;;;;;;;;;5020583;28;20566;-79
2021/08/30 10:19:44;;;;;;;8.18;4.78;;;;;;;;;;5026430;28;20056;-79
2021/08/30 10:22:19;;;;;;;7.50;5.28;;;;;;;;;;5036368;28;20137;-79
2021/08/30 10:24:46;;;;;;;5.57;4.60;;;;;;;;;;5018622;28;20057;-80
2021/08/30 10:27:14;;;;;;;9.40;5.18;;;;;;;;;;5033125;28;20530;-80
2021/08/30 10:29:41;;;;;;;6.47;4.97;;;;;;;;;;5033405;28;20076;-81
2021/08/30 10:32:19;;;;;;;6.72;4.60;;;;;;;;;;5013417;28;20057;-79
2021/08/30 10:34:46;;;;;;;5.70;4.50;;;;;;;;;;5021998;28;20508;-80
2021/08/30 10:37:19;;;;;;;6.30;4.70;;;;;;;;;;5019973;28;20069;-80
2021/08/30 10:39:47;;;;;;;7.70;4.88;;;;;;;;;;5014943;28;20547;-81
2021/08/30 10:42:14;;;;;;;6.63;4.43;;;;;;;;;;5017925;28;20088;-79
2021/08/30 10:44:57;;;;;;;6.82;4.80;;;;;;;;;;5021668;28;20492;-80
2021/08/30 10:47:24;;;;;;;7.07;4.80;;;;;;;;;;5016655;28;20056;-79
2021/08/30 10:49:51;;;;;;;7.45;5.13;;;;;;;;;;5027124;28;20115;-81
2021/08/30 10:52:18;;;;;;;6.47;4.85;;;;;;;;;;5011308;28;20061;-79
2021/08/30 10:54:50;;;;;;;5.88;4.70;;;;;;;;;;5031090;28;20049;-79
2021/08/30 10:57:16;;;;;;;6.90;4.80;;;;;;;;;;5034447;28;20063;-79
2021/08/30 10:59:43;;;;;;;7.53;4.95;;;;;;;;;;5024064;28;20033;-79
2021/08/30 11:02:10;;;;;;;6.72;4.63;;;;;;;;;;5023863;28;20103;-79
2021/08/30 11:04:38;;;;;;;6.13;4.68;;;;;;;;;;5021188;28;20580;-79
2021/08/30 11:07:05;;;;;;;6.35;4.75;;;;;;;;;;5037247;28;20115;-79
2021/08/30 11:09:32;;;;;;;7.25;5.10;;;;;;;;;;5018536;28;20077;-79
2021/08/30 11:12:08;;;;;;;7.03;4.70;;;;;;;;;;5025998;28;20069;-79
2021/08/30 11:14:35;;;;;;;6.50;4.25;;;;;;;;;;5020537;28;20083;-78
2021/08/30 11:17:02;;;;;;;5.60;4.60;;;;;;;;;;5021213;28;20138;-78
2021/08/30 11:19:28;;;;;;;6.13;5.07;;;;;;;;;;5016556;28;20327;-79
2021/08/30 11:21:57;;;;;;;6.13;4.47;;;;;;;;;;5010722;28;20068;-79
2021/08/30 11:24:39;;;;;;;6.65;4.85;;;;;;;;;;5029519;28;20068;-78
2021/08/30 11:27:07;;;;;;;6.75;4.80;;;;;;;;;;5011782;28;20064;-78
2021/08/30 11:29:34;;;;;;;5.72;4.32;;;;;;;;;;5020548;28;20069;-79
2021/08/30 11:32:01;;;;;;;5.63;4.22;;;;;;;;;;5023757;28;20119;-78
2021/08/30 11:34:31;;;;;;;5.63;4.30;;;;;;;;;;5021684;28;20231;-78
2021/08/30 11:36:59;;;;;;;6.87;3.90;;;;;;;;;;5033441;28;20085;-78
2021/08/30 11:39:26;;;;;;;7.22;4.53;;;;;;;;;;5017108;28;20475;-78
2021/08/30 11:41:54;;;;;;;6.07;4.57;;;;;;;;;;5018393;28;20861;-79
2021/08/30 11:44:25;;;;;;;6.93;4.90;;;;;;;;;;5013156;28;20098;-78
2021/08/30 11:46:56;;;;;;;6.40;4.50;;;;;;;;;;5016718;28;20069;-78
2021/08/30 11:49:23;;;;;;;6.45;4.60;;;;;;;;;;5025705;28;20474;-78
2021/08/30 11:51:51;;;;;;;7.07;4.63;;;;;;;;;;5015219;28;20072;-78
2021/08/30 11:54:19;;;;;;;6.07;4.55;;;;;;;;;;5011303;28;20061;-78
2021/08/30 11:56:52;;;;;;;6.30;4.50;;;;;;;;;;5032245;28;20107;-78
2021/08/30 11:59:30;;;;;;;6.75;5.07;;;;;;;;;;5021604;28;20061;-77
2021/08/30 12:01:57;;;;;;;6.68;4.63;;;;;;;;;;5019918;28;20132;-77
2021/08/30 12:04:27;;;;;;;6.60;4.68;;;;;;;;;;5015470;28;20105;-78
2021/08/30 12:06:57;;;;;;;6.60;4.50;;;;;;;;;;5012930;28;20070;-78
2021/08/30 12:09:24;;;;;;;5.05;3.67;;;;;;;;;;5014248;28;20430;-79
2021/08/30 12:11:52;;;;;;;4.97;3.97;;;;;;;;;;5019513;28;20123;-83
2021/08/30 12:14:21;;;;;;;7.25;4.47;;;;;;;;;;5025577;28;20061;-84
2021/08/30 12:16:48;;;;;;;5.55;3.85;;;;;;;;;;5022483;28;20037;-83
2021/08/30 12:19:15;;;;;;;6.60;4.50;;;;;;;;;;5013420;28;20634;-83
2021/08/30 12:21:42;;;;;;;5.93;4.55;;;;;;;;;;5018137;28;20092;-83
2021/08/30 12:24:09;;;;;;;7.78;4.03;;;;;;;;;;5025124;28;20570;-83
2021/08/30 12:26:36;;;;;;;5.57;4.40;;;;;;;;;;5018286;28;20489;-83
2021/08/30 12:29:03;;;;;;;5.63;4.10;;;;;;;;;;5019041;28;20092;-81
2021/08/30 12:31:34;;;;;;;9.18;4.80;;;;;;;;;;5023814;28;20084;-82
2021/08/30 12:34:21;;;;;;;5.72;4.43;;;;;;;;;;5023885;28;20087;-82
2021/08/30 12:36:49;;;;;;;5.95;4.03;;;;;;;;;;4999182;28;20219;-84
2021/08/30 12:39:15;;;;;;;6.35;4.60;;;;;;;;;;4997915;28;20115;-84
2021/08/30 12:41:42;;;;;;;6.68;4.40;;;;;;;;;;5002073;28;20029;-83
2021/08/30 12:44:08;;;;;;;8.07;4.80;;;;;;;;;;5024508;28;20210;-83
2021/08/30 12:46:34;;;;;;;5.70;4.00;;;;;;;;;;5011176;28;20443;-83
2021/08/30 12:49:02;;;;;;;5.68;4.32;;;;;;;;;;5014344;28;20034;-83
2021/08/30 12:51:29;;;;;;;5.63;4.18;;;;;;;;;;5019676;28;22273;-82
2021/08/30 12:53:55;;;;;;;5.55;3.92;;;;;;;;;;5016094;28;20094;-82
2021/08/30 12:56:21;;;;;;;5.75;4.10;;;;;;;;;;5015888;28;20539;-86
2021/08/30 12:58:48;;;;;;;6.22;4.60;;;;;;;;;;5014495;28;20087;-84
2021/08/30 13:01:14;;;;;;;6.03;4.35;;;;;;;;;;5010834;28;20060;-84
2021/08/30 13:03:41;;;;;;;6.65;4.28;;;;;;;;;;5010822;28;20512;-85
2021/08/30 13:06:07;;;;;;;5.53;4.22;;;;;;;;;;5021561;28;20057;-84
2021/08/30 13:08:34;;;;;;;6.88;4.22;;;;;;;;;;5019195;28;20081;-83
2021/08/30 13:11:15;;;;;;;6.18;4.45;;;;;;;;;;5013892;28;20616;-85
2021/08/30 13:13:47;;;;;;;5.25;4.03;;;;;;;;;;5016178;28;20029;-83
2021/08/30 13:16:13;;;;;;;6.28;4.35;;;;;;;;;;5015416;28;20108;-85
2021/08/30 13:18:40;;;;;;;6.22;4.53;;;;;;;;;;5015110;28;20056;-85
2021/08/30 13:21:06;;;;;;;6.28;4.57;;;;;;;;;;5028309;28;20623;-85
2021/08/30 13:23:32;;;;;;;6.28;4.45;;;;;;;;;;5029418;28;20091;-84
2021/08/30 13:25:59;;;;;;;6.20;3.83;;;;;;;;;;5013223;28;20116;-84
2021/08/30 13:28:25;;;;;;;5.38;4.00;;;;;;;;;;5016797;28;20510;-84
2021/08/30 13:30:52;;;;;;;5.65;4.15;;;;;;;;;;5024883;28;20065;-85
2021/08/30 13:33:18;;;;;;;5.22;4.00;;;;;;;;;;5026693;28;20065;-83
2021/08/30 13:35:45;;;;;;;7.47;4.43;;;;;;;;;;5014431;28;20099;-84
2021/08/30 13:38:11;;;;;;;10.63;5.10;;;;;;;;;;5016524;28;20065;-83
2021/08/30 13:40:38;;;;;;;6.45;4.82;;;;;;;;;;5027875;28;20052;-82
2021/08/30 13:43:04;;;;;;;5.90;4.35;;;;;;;;;;5022504;28;20532;-82
2021/08/30 13:45:31;;;;;;;7.13;4.18;;;;;;;;;;5031191;28;20061;-81
2021/08/30 13:47:57;;;;;;;5.18;3.75;;;;;;;;;;5033777;28;20509;-82
2021/08/30 13:50:24;;;;;;;7.03;4.38;;;;;;;;;;5030962;28;20058;-82
2021/08/30 13:52:50;;;;;;;6.47;3.75;;;;;;;;;;5016376;28;20580;-82
2021/08/30 13:55:17;;;;;;;5.57;4.00;;;;;;;;;;5019830;28;20137;-83
2021/08/30 13:57:43;;;;;;;7.30;4.47;;;;;;;;;;5014926;28;20068;-82
2021/08/30 14:00:11;;;;;;;6.07;4.15;;;;;;;;;;5013889;28;20052;-82
2021/08/30 14:02:38;;;;;;;6.18;4.00;;;;;;;;;;5028447;28;20053;-83
2021/08/30 14:05:04;;;;;;;7.20;4.22;;;;;;;;;;5020511;28;20065;-83
2021/08/30 14:07:31;;;;;;;6.40;3.85;;;;;;;;;;5025324;28;20061;-83
2021/08/30 14:09:58;;;;;;;7.50;4.28;;;;;;;;;;5023017;28;20075;-83
2021/08/30 14:12:24;;;;;;;5.65;4.10;;;;;;;;;;5023638;28;20061;-83
2021/08/30 14:14:50;;;;;;;6.43;4.10;;;;;;;;;;5021879;28;20135;-83
2021/08/30 14:17:17;;;;;;;5.25;3.55;;;;;;;;;;5027244;28;20068;-83
2021/08/30 14:19:43;;;;;;;5.65;3.70;;;;;;;;;;5026653;28;20591;-82
2021/08/30 14:22:10;;;;;;;7.70;4.20;;;;;;;;;;5020487;28;20053;-82
2021/08/30 14:24:36;;;;;;;5.50;3.80;;;;;;;;;;5023726;28;20068;-83
2021/08/30 14:27:03;;;;;;;6.40;3.78;;;;;;;;;;5030186;28;20065;-81
2021/08/30 14:29:29;;;;;;;8.13;4.07;;;;;;;;;;5015814;28;20053;-83
2021/08/30 14:31:55;;;;;;;5.70;3.70;;;;;;;;;;5035636;28;20559;-82
2021/08/30 14:34:22;;;;;;;5.20;3.40;;;;;;;;;;5026097;28;20072;-84
2021/08/30 14:36:48;;;;;;;8.05;4.00;;;;;;;;;;5015215;28;20571;-83
2021/08/30 14:39:15;;;;;;;7.55;4.38;;;;;;;;;;5020857;28;20115;-83
2021/08/30 14:41:41;;;;;;;10.32;4.53;;;;;;;;;;5022909;28;20449;-85
2021/08/30 14:44:07;;;;;;;8.93;4.40;;;;;;;;;;5032048;28;20065;-82
2021/08/30 14:46:34;;;;;;;7.65;4.07;;;;;;;;;;5013702;28;20061;-81